sensor_id;sensor_type;location;lat;lon;timestamp;temperature;humidity
64817;DHT22;53289;45.602;11.904;2022-08-21T00:00:19;20.00;74.70
64817;DHT22;53289;45.602;11.904;2022-08-21T00:02:51;20.00;74.80
64817;DHT22;53289;45.602;11.904;2022-08-21T00:05:18;20.00;74.80
64817;DHT22;53289;45.602;11.904;2022-08-21T00:07:45;20.00;74.90
64817;DHT22;53289;45.602;11.904;2022-08-21T00:10:11;19.90;74.90
64817;DHT22;53289;45.602;11.904;2022-08-21T00:12:38;19.90;74.90
64817;DHT22;53289;45.602;11.904;2022-08-21T00:15:06;19.90;75.00
64817;DHT22;53289;45.602;11.904;2022-08-21T00:17:32;19.90;75.20
64817;DHT22;53289;45.602;11.904;2022-08-21T00:19:58;19.80;75.30
64817;DHT22;53289;45.602;11.904;2022-08-21T00:22:24;19.80;75.30
64817;DHT22;53289;45.602;11.904;2022-08-21T00:24:50;19.70;75.40
64817;DHT22;53289;45.602;11.904;2022-08-21T00:27:17;19.70;75.50
64817;DHT22;53289;45.602;11.904;2022-08-21T00:29:43;19.70;75.50
64817;DHT22;53289;45.602;11.904;2022-08-21T00:32:09;19.70;75.70
64817;DHT22;53289;45.602;11.904;2022-08-21T00:34:35;19.70;75.60
64817;DHT22;53289;45.602;11.904;2022-08-21T00:37:01;19.60;75.60
64817;DHT22;53289;45.602;11.904;2022-08-21T00:39:27;19.60;75.80
64817;DHT22;53289;45.602;11.904;2022-08-21T00:41:52;19.50;75.70
64817;DHT22;53289;45.602;11.904;2022-08-21T00:44:18;19.50;75.80
64817;DHT22;53289;45.602;11.904;2022-08-21T00:46:44;19.50;75.90
64817;DHT22;53289;45.602;11.904;2022-08-21T00:49:11;19.50;76.10
64817;DHT22;53289;45.602;11.904;2022-08-21T00:51:56;19.40;76.20
64817;DHT22;53289;45.602;11.904;2022-08-21T00:54:26;19.40;76.20
64817;DHT22;53289;45.602;11.904;2022-08-21T00:57:07;19.40;76.20
64817;DHT22;53289;45.602;11.904;2022-08-21T00:59:37;19.40;76.20
64817;DHT22;53289;45.602;11.904;2022-08-21T01:02:06;19.40;76.10
64817;DHT22;53289;45.602;11.904;2022-08-21T01:04:34;19.30;76.10
64817;DHT22;53289;45.602;11.904;2022-08-21T01:07:00;19.30;76.10
64817;DHT22;53289;45.602;11.904;2022-08-21T01:09:26;19.30;76.20
64817;DHT22;53289;45.602;11.904;2022-08-21T01:11:52;19.20;76.20
64817;DHT22;53289;45.602;11.904;2022-08-21T01:14:19;19.20;76.20
64817;DHT22;53289;45.602;11.904;2022-08-21T01:16:48;19.10;76.20
64817;DHT22;53289;45.602;11.904;2022-08-21T01:19:16;19.20;76.40
64817;DHT22;53289;45.602;11.904;2022-08-21T01:21:43;19.10;76.60
64817;DHT22;53289;45.602;11.904;2022-08-21T01:24:10;19.10;76.70
64817;DHT22;53289;45.602;11.904;2022-08-21T01:26:37;19.10;76.70
64817;DHT22;53289;45.602;11.904;2022-08-21T01:31:39;19.00;76.80
64817;DHT22;53289;45.602;11.904;2022-08-21T01:34:07;18.90;77.10
64817;DHT22;53289;45.602;11.904;2022-08-21T01:36:33;18.90;77.30
64817;DHT22;53289;45.602;11.904;2022-08-21T01:39:00;18.90;77.30
64817;DHT22;53289;45.602;11.904;2022-08-21T01:41:26;18.90;77.50
64817;DHT22;53289;45.602;11.904;2022-08-21T01:43:51;18.90;77.60
64817;DHT22;53289;45.602;11.904;2022-08-21T01:46:17;18.80;77.70
64817;DHT22;53289;45.602;11.904;2022-08-21T01:48:44;18.80;78.00
64817;DHT22;53289;45.602;11.904;2022-08-21T01:51:10;18.70;78.20
64817;DHT22;53289;45.602;11.904;2022-08-21T01:53:37;18.70;78.30
64817;DHT22;53289;45.602;11.904;2022-08-21T01:56:07;18.60;78.50
64817;DHT22;53289;45.602;11.904;2022-08-21T01:58:33;18.60;78.40
64817;DHT22;53289;45.602;11.904;2022-08-21T02:01:00;18.60;78.40
64817;DHT22;53289;45.602;11.904;2022-08-21T02:03:28;18.50;78.40
64817;DHT22;53289;45.602;11.904;2022-08-21T02:05:55;18.50;78.50
64817;DHT22;53289;45.602;11.904;2022-08-21T02:08:22;18.40;78.50
64817;DHT22;53289;45.602;11.904;2022-08-21T02:10:50;18.40;78.50
64817;DHT22;53289;45.602;11.904;2022-08-21T02:13:17;18.40;78.50
64817;DHT22;53289;45.602;11.904;2022-08-21T02:15:42;18.40;78.60
64817;DHT22;53289;45.602;11.904;2022-08-21T02:18:09;18.40;79.00
64817;DHT22;53289;45.602;11.904;2022-08-21T02:20:38;18.30;79.10
64817;DHT22;53289;45.602;11.904;2022-08-21T02:23:06;18.20;79.20
64817;DHT22;53289;45.602;11.904;2022-08-21T02:25:32;18.20;79.30
64817;DHT22;53289;45.602;11.904;2022-08-21T02:28:02;18.20;79.30
64817;DHT22;53289;45.602;11.904;2022-08-21T02:30:34;18.10;79.40
64817;DHT22;53289;45.602;11.904;2022-08-21T02:33:00;18.00;79.50
64817;DHT22;53289;45.602;11.904;2022-08-21T02:35:27;18.00;79.90
64817;DHT22;53289;45.602;11.904;2022-08-21T02:38:01;18.00;79.70
64817;DHT22;53289;45.602;11.904;2022-08-21T02:40:34;17.90;79.90
64817;DHT22;53289;45.602;11.904;2022-08-21T02:43:02;17.90;80.00
64817;DHT22;53289;45.602;11.904;2022-08-21T02:45:29;17.90;79.90
64817;DHT22;53289;45.602;11.904;2022-08-21T02:48:02;17.90;80.30
64817;DHT22;53289;45.602;11.904;2022-08-21T02:50:34;17.90;80.20
64817;DHT22;53289;45.602;11.904;2022-08-21T02:53:00;17.90;80.30
64817;DHT22;53289;45.602;11.904;2022-08-21T02:55:29;17.90;80.10
64817;DHT22;53289;45.602;11.904;2022-08-21T02:57:56;17.90;80.40
64817;DHT22;53289;45.602;11.904;2022-08-21T03:00:25;17.90;80.60
64817;DHT22;53289;45.602;11.904;2022-08-21T03:02:52;17.90;80.70
64817;DHT22;53289;45.602;11.904;2022-08-21T03:05:19;17.90;80.60
64817;DHT22;53289;45.602;11.904;2022-08-21T03:07:46;17.90;80.30
64817;DHT22;53289;45.602;11.904;2022-08-21T03:10:16;17.90;80.20
64817;DHT22;53289;45.602;11.904;2022-08-21T03:12:42;17.90;80.00
64817;DHT22;53289;45.602;11.904;2022-08-21T03:15:12;17.90;79.80
64817;DHT22;53289;45.602;11.904;2022-08-21T03:17:38;17.90;80.00
64817;DHT22;53289;45.602;11.904;2022-08-21T03:20:06;17.90;79.90
64817;DHT22;53289;45.602;11.904;2022-08-21T03:22:32;17.90;80.00
64817;DHT22;53289;45.602;11.904;2022-08-21T03:24:59;17.80;80.10
64817;DHT22;53289;45.602;11.904;2022-08-21T03:27:27;17.80;80.00
64817;DHT22;53289;45.602;11.904;2022-08-21T03:29:55;17.80;80.30
64817;DHT22;53289;45.602;11.904;2022-08-21T03:32:21;17.80;80.30
64817;DHT22;53289;45.602;11.904;2022-08-21T03:34:47;17.80;80.40
64817;DHT22;53289;45.602;11.904;2022-08-21T03:37:14;17.80;80.60
64817;DHT22;53289;45.602;11.904;2022-08-21T03:39:41;17.70;81.40
64817;DHT22;53289;45.602;11.904;2022-08-21T03:42:11;17.70;80.80
64817;DHT22;53289;45.602;11.904;2022-08-21T03:44:38;17.60;80.80
64817;DHT22;53289;45.602;11.904;2022-08-21T03:47:05;17.50;80.80
64817;DHT22;53289;45.602;11.904;2022-08-21T03:49:32;17.50;80.90
64817;DHT22;53289;45.602;11.904;2022-08-21T03:51:59;17.50;80.80
64817;DHT22;53289;45.602;11.904;2022-08-21T03:54:26;17.50;80.90
64817;DHT22;53289;45.602;11.904;2022-08-21T03:56:52;17.40;81.00
64817;DHT22;53289;45.602;11.904;2022-08-21T03:59:18;17.40;81.10
64817;DHT22;53289;45.602;11.904;2022-08-21T04:01:52;17.40;81.30
64817;DHT22;53289;45.602;11.904;2022-08-21T04:04:18;17.40;81.40
64817;DHT22;53289;45.602;11.904;2022-08-21T04:06:44;17.40;81.40
64817;DHT22;53289;45.602;11.904;2022-08-21T04:09:10;17.30;81.30
64817;DHT22;53289;45.602;11.904;2022-08-21T04:11:36;17.40;81.50
64817;DHT22;53289;45.602;11.904;2022-08-21T04:14:02;17.40;81.60
64817;DHT22;53289;45.602;11.904;2022-08-21T04:16:33;17.40;81.70
64817;DHT22;53289;45.602;11.904;2022-08-21T04:18:58;17.30;81.60
64817;DHT22;53289;45.602;11.904;2022-08-21T04:21:24;17.30;81.60
64817;DHT22;53289;45.602;11.904;2022-08-21T04:23:50;17.20;81.90
64817;DHT22;53289;45.602;11.904;2022-08-21T04:26:17;17.30;81.90
64817;DHT22;53289;45.602;11.904;2022-08-21T04:28:42;17.20;81.90
64817;DHT22;53289;45.602;11.904;2022-08-21T04:31:09;17.20;82.10
64817;DHT22;53289;45.602;11.904;2022-08-21T04:33:35;17.10;82.00
64817;DHT22;53289;45.602;11.904;2022-08-21T04:36:01;17.10;82.10
64817;DHT22;53289;45.602;11.904;2022-08-21T04:38:27;17.10;82.10
64817;DHT22;53289;45.602;11.904;2022-08-21T04:40:53;17.10;82.30
64817;DHT22;53289;45.602;11.904;2022-08-21T04:43:19;17.20;82.30
64817;DHT22;53289;45.602;11.904;2022-08-21T04:45:49;17.10;82.60
64817;DHT22;53289;45.602;11.904;2022-08-21T04:48:18;17.10;82.60
64817;DHT22;53289;45.602;11.904;2022-08-21T04:50:57;17.10;82.60
64817;DHT22;53289;45.602;11.904;2022-08-21T04:56:08;17.20;82.40
64817;DHT22;53289;45.602;11.904;2022-08-21T04:58:37;17.30;82.30
64817;DHT22;53289;45.602;11.904;2022-08-21T05:01:06;17.30;82.20
64817;DHT22;53289;45.602;11.904;2022-08-21T05:03:36;17.40;82.20
64817;DHT22;53289;45.602;11.904;2022-08-21T05:06:05;17.40;82.10
64817;DHT22;53289;45.602;11.904;2022-08-21T05:08:33;17.50;81.90
64817;DHT22;53289;45.602;11.904;2022-08-21T05:10:59;17.60;82.00
64817;DHT22;53289;45.602;11.904;2022-08-21T05:13:25;17.70;81.70
64817;DHT22;53289;45.602;11.904;2022-08-21T05:15:51;17.80;81.50
64817;DHT22;53289;45.602;11.904;2022-08-21T05:18:17;17.90;81.10
64817;DHT22;53289;45.602;11.904;2022-08-21T05:20:43;18.00;81.10
64817;DHT22;53289;45.602;11.904;2022-08-21T05:23:13;18.10;81.20
64817;DHT22;53289;45.602;11.904;2022-08-21T05:25:40;18.20;81.00
64817;DHT22;53289;45.602;11.904;2022-08-21T05:28:07;18.40;81.20
64817;DHT22;53289;45.602;11.904;2022-08-21T05:30:33;18.50;82.20
64817;DHT22;53289;45.602;11.904;2022-08-21T05:33:01;18.60;81.50
64817;DHT22;53289;45.602;11.904;2022-08-21T05:35:28;18.70;81.00
64817;DHT22;53289;45.602;11.904;2022-08-21T05:37:55;18.90;80.30
64817;DHT22;53289;45.602;11.904;2022-08-21T05:40:22;18.90;80.00
64817;DHT22;53289;45.602;11.904;2022-08-21T05:42:50;19.10;79.60
64817;DHT22;53289;45.602;11.904;2022-08-21T05:45:16;19.20;79.70
64817;DHT22;53289;45.602;11.904;2022-08-21T05:47:42;19.40;79.40
64817;DHT22;53289;45.602;11.904;2022-08-21T05:50:09;19.50;79.00
64817;DHT22;53289;45.602;11.904;2022-08-21T05:52:35;19.60;79.50
64817;DHT22;53289;45.602;11.904;2022-08-21T05:55:01;19.80;78.70
64817;DHT22;53289;45.602;11.904;2022-08-21T05:57:27;19.90;77.90
64817;DHT22;53289;45.602;11.904;2022-08-21T05:59:53;20.10;77.60
64817;DHT22;53289;45.602;11.904;2022-08-21T06:02:20;20.20;77.40
64817;DHT22;53289;45.602;11.904;2022-08-21T06:04:47;20.30;76.90
64817;DHT22;53289;45.602;11.904;2022-08-21T06:07:14;20.40;76.60
64817;DHT22;53289;45.602;11.904;2022-08-21T06:09:40;20.50;76.40
64817;DHT22;53289;45.602;11.904;2022-08-21T06:12:09;20.60;76.20
64817;DHT22;53289;45.602;11.904;2022-08-21T06:14:38;20.70;76.00
64817;DHT22;53289;45.602;11.904;2022-08-21T06:17:06;20.80;75.80
64817;DHT22;53289;45.602;11.904;2022-08-21T06:19:32;20.90;75.50
64817;DHT22;53289;45.602;11.904;2022-08-21T06:21:59;21.00;75.30
64817;DHT22;53289;45.602;11.904;2022-08-21T06:24:26;21.10;75.20
64817;DHT22;53289;45.602;11.904;2022-08-21T06:26:52;21.20;74.80
64817;DHT22;53289;45.602;11.904;2022-08-21T06:29:19;21.40;74.60
64817;DHT22;53289;45.602;11.904;2022-08-21T06:31:47;21.40;74.20
64817;DHT22;53289;45.602;11.904;2022-08-21T06:34:14;21.60;73.90
64817;DHT22;53289;45.602;11.904;2022-08-21T06:36:41;21.70;73.40
64817;DHT22;53289;45.602;11.904;2022-08-21T06:39:07;21.80;73.20
64817;DHT22;53289;45.602;11.904;2022-08-21T06:41:33;21.90;73.10
64817;DHT22;53289;45.602;11.904;2022-08-21T06:43:59;22.10;72.80
64817;DHT22;53289;45.602;11.904;2022-08-21T06:46:28;22.20;72.20
64817;DHT22;53289;45.602;11.904;2022-08-21T06:48:54;22.40;71.50
64817;DHT22;53289;45.602;11.904;2022-08-21T06:51:21;22.50;71.10
64817;DHT22;53289;45.602;11.904;2022-08-21T06:53:49;22.60;70.80
64817;DHT22;53289;45.602;11.904;2022-08-21T06:56:15;22.80;70.30
64817;DHT22;53289;45.602;11.904;2022-08-21T06:58:41;22.90;70.10
64817;DHT22;53289;45.602;11.904;2022-08-21T07:01:07;23.10;70.10
64817;DHT22;53289;45.602;11.904;2022-08-21T07:03:38;23.30;69.70
64817;DHT22;53289;45.602;11.904;2022-08-21T07:06:06;23.40;68.50
64817;DHT22;53289;45.602;11.904;2022-08-21T07:08:33;23.50;68.30
64817;DHT22;53289;45.602;11.904;2022-08-21T07:11:01;23.70;68.20
64817;DHT22;53289;45.602;11.904;2022-08-21T07:13:28;23.90;67.90
64817;DHT22;53289;45.602;11.904;2022-08-21T07:15:54;24.10;67.30
64817;DHT22;53289;45.602;11.904;2022-08-21T07:18:20;24.30;66.10
64817;DHT22;53289;45.602;11.904;2022-08-21T07:20:47;24.50;65.70
64817;DHT22;53289;45.602;11.904;2022-08-21T07:23:26;24.80;64.30
64817;DHT22;53289;45.602;11.904;2022-08-21T07:25:53;25.00;62.80
64817;DHT22;53289;45.602;11.904;2022-08-21T07:28:19;25.30;62.50
64817;DHT22;53289;45.602;11.904;2022-08-21T07:30:46;25.60;61.90
64817;DHT22;53289;45.602;11.904;2022-08-21T07:33:16;25.90;60.90
64817;DHT22;53289;45.602;11.904;2022-08-21T07:35:42;26.30;59.20
64817;DHT22;53289;45.602;11.904;2022-08-21T07:38:07;26.60;58.90
64817;DHT22;53289;45.602;11.904;2022-08-21T07:40:33;26.90;57.50
64817;DHT22;53289;45.602;11.904;2022-08-21T07:42:59;27.20;57.00
64817;DHT22;53289;45.602;11.904;2022-08-21T07:45:25;27.40;57.10
64817;DHT22;53289;45.602;11.904;2022-08-21T07:47:51;27.70;56.20
64817;DHT22;53289;45.602;11.904;2022-08-21T07:50:18;27.90;55.10
64817;DHT22;53289;45.602;11.904;2022-08-21T07:52:45;28.20;54.30
64817;DHT22;53289;45.602;11.904;2022-08-21T07:55:15;28.50;54.70
64817;DHT22;53289;45.602;11.904;2022-08-21T07:57:42;28.70;54.10
64817;DHT22;53289;45.602;11.904;2022-08-21T08:00:12;28.90;54.20
64817;DHT22;53289;45.602;11.904;2022-08-21T08:02:39;29.10;52.30
64817;DHT22;53289;45.602;11.904;2022-08-21T08:05:07;29.40;51.80
64817;DHT22;53289;45.602;11.904;2022-08-21T08:07:35;29.60;51.70
64817;DHT22;53289;45.602;11.904;2022-08-21T08:10:02;29.90;51.70
64817;DHT22;53289;45.602;11.904;2022-08-21T08:12:28;30.00;48.60
64817;DHT22;53289;45.602;11.904;2022-08-21T08:14:59;30.30;48.30
64817;DHT22;53289;45.602;11.904;2022-08-21T08:17:25;30.60;48.30
64817;DHT22;53289;45.602;11.904;2022-08-21T08:19:52;30.80;49.00
64817;DHT22;53289;45.602;11.904;2022-08-21T08:22:20;31.00;49.10
64817;DHT22;53289;45.602;11.904;2022-08-21T08:24:46;31.10;48.80
64817;DHT22;53289;45.602;11.904;2022-08-21T08:27:14;31.30;48.90
64817;DHT22;53289;45.602;11.904;2022-08-21T08:29:42;31.30;48.30
64817;DHT22;53289;45.602;11.904;2022-08-21T08:32:08;31.30;48.80
64817;DHT22;53289;45.602;11.904;2022-08-21T08:34:35;31.40;48.50
64817;DHT22;53289;45.602;11.904;2022-08-21T08:37:03;31.40;48.30
64817;DHT22;53289;45.602;11.904;2022-08-21T08:39:30;31.50;47.80
64817;DHT22;53289;45.602;11.904;2022-08-21T08:42:07;31.60;47.60
64817;DHT22;53289;45.602;11.904;2022-08-21T08:44:41;31.70;47.70
64817;DHT22;53289;45.602;11.904;2022-08-21T08:47:09;31.70;47.90
64817;DHT22;53289;45.602;11.904;2022-08-21T08:53:02;32.20;45.60
64817;DHT22;53289;45.602;11.904;2022-08-21T08:55:55;32.60;46.30
64817;DHT22;53289;45.602;11.904;2022-08-21T08:58:30;33.00;45.20
64817;DHT22;53289;45.602;11.904;2022-08-21T09:00:57;33.30;44.50
64817;DHT22;53289;45.602;11.904;2022-08-21T09:03:25;33.60;44.10
64817;DHT22;53289;45.602;11.904;2022-08-21T09:06:06;33.80;44.00
64817;DHT22;53289;45.602;11.904;2022-08-21T09:18:13;34.50;40.90
64817;DHT22;53289;45.602;11.904;2022-08-21T09:23:18;34.50;40.00
64817;DHT22;53289;45.602;11.904;2022-08-21T09:28:34;34.80;40.90
64817;DHT22;53289;45.602;11.904;2022-08-21T09:31:06;35.00;40.20
64817;DHT22;53289;45.602;11.904;2022-08-21T09:33:33;35.10;40.30
64817;DHT22;53289;45.602;11.904;2022-08-21T09:36:00;35.20;40.50
64817;DHT22;53289;45.602;11.904;2022-08-21T09:38:31;35.40;39.50
64817;DHT22;53289;45.602;11.904;2022-08-21T09:41:02;35.50;38.60
64817;DHT22;53289;45.602;11.904;2022-08-21T09:43:30;35.40;39.00
64817;DHT22;53289;45.602;11.904;2022-08-21T09:49:03;35.40;37.00
64817;DHT22;53289;45.602;11.904;2022-08-21T09:51:32;35.40;37.60
64817;DHT22;53289;45.602;11.904;2022-08-21T09:56:38;35.70;37.90
64817;DHT22;53289;45.602;11.904;2022-08-21T09:59:31;35.90;38.50
64817;DHT22;53289;45.602;11.904;2022-08-21T10:02:00;36.00;37.70
64817;DHT22;53289;45.602;11.904;2022-08-21T10:04:33;36.30;37.00
64817;DHT22;53289;45.602;11.904;2022-08-21T10:07:20;36.40;36.10
64817;DHT22;53289;45.602;11.904;2022-08-21T10:10:08;36.50;35.80
64817;DHT22;53289;45.602;11.904;2022-08-21T10:15:34;36.70;33.80
64817;DHT22;53289;45.602;11.904;2022-08-21T10:20:45;36.80;33.50
64817;DHT22;53289;45.602;11.904;2022-08-21T10:26:27;37.20;33.50
64817;DHT22;53289;45.602;11.904;2022-08-21T10:29:00;37.30;32.60
64817;DHT22;53289;45.602;11.904;2022-08-21T10:31:30;37.40;32.50
64817;DHT22;53289;45.602;11.904;2022-08-21T10:40:07;38.40;32.20
64817;DHT22;53289;45.602;11.904;2022-08-21T10:48:06;38.90;31.80
64817;DHT22;53289;45.602;11.904;2022-08-21T10:50:52;38.90;31.20
64817;DHT22;53289;45.602;11.904;2022-08-21T10:53:36;38.80;30.40
64817;DHT22;53289;45.602;11.904;2022-08-21T11:07:28;39.90;29.10
64817;DHT22;53289;45.602;11.904;2022-08-21T11:09:58;39.80;29.50
64817;DHT22;53289;45.602;11.904;2022-08-21T11:12:38;40.10;29.70
64817;DHT22;53289;45.602;11.904;2022-08-21T11:20:49;40.90;28.20
64817;DHT22;53289;45.602;11.904;2022-08-21T11:23:28;41.40;27.90
64817;DHT22;53289;45.602;11.904;2022-08-21T11:26:04;41.60;26.70
64817;DHT22;53289;45.602;11.904;2022-08-21T11:28:38;41.90;26.10
64817;DHT22;53289;45.602;11.904;2022-08-21T11:31:26;42.00;26.30
64817;DHT22;53289;45.602;11.904;2022-08-21T11:36:56;42.20;26.10
64817;DHT22;53289;45.602;11.904;2022-08-21T11:43:07;42.20;26.90
64817;DHT22;53289;45.602;11.904;2022-08-21T11:50:59;42.20;26.20
64817;DHT22;53289;45.602;11.904;2022-08-21T11:54:08;42.20;27.50
64817;DHT22;53289;45.602;11.904;2022-08-21T11:56:41;42.50;26.10
64817;DHT22;53289;45.602;11.904;2022-08-21T11:59:14;42.90;27.50
64817;DHT22;53289;45.602;11.904;2022-08-21T12:01:47;43.00;26.90
64817;DHT22;53289;45.602;11.904;2022-08-21T12:04:27;43.00;26.40
64817;DHT22;53289;45.602;11.904;2022-08-21T12:06:55;43.10;25.20
64817;DHT22;53289;45.602;11.904;2022-08-21T12:14:48;43.50;25.30
64817;DHT22;53289;45.602;11.904;2022-08-21T12:17:23;43.60;25.10
64817;DHT22;53289;45.602;11.904;2022-08-21T12:20:00;43.80;24.10
64817;DHT22;53289;45.602;11.904;2022-08-21T12:22:40;43.70;25.20
64817;DHT22;53289;45.602;11.904;2022-08-21T12:25:09;43.40;23.50
64817;DHT22;53289;45.602;11.904;2022-08-21T12:28:01;43.40;24.80
64817;DHT22;53289;45.602;11.904;2022-08-21T12:33:00;43.90;25.50
64817;DHT22;53289;45.602;11.904;2022-08-21T12:35:37;44.00;23.90
64817;DHT22;53289;45.602;11.904;2022-08-21T12:38:28;44.20;23.40
64817;DHT22;53289;45.602;11.904;2022-08-21T12:41:07;44.40;24.00
64817;DHT22;53289;45.602;11.904;2022-08-21T12:43:42;44.50;23.70
64817;DHT22;53289;45.602;11.904;2022-08-21T12:46:22;44.70;23.60
64817;DHT22;53289;45.602;11.904;2022-08-21T12:49:02;44.90;23.40
64817;DHT22;53289;45.602;11.904;2022-08-21T12:54:31;44.70;24.00
64817;DHT22;53289;45.602;11.904;2022-08-21T12:57:00;44.90;23.60
64817;DHT22;53289;45.602;11.904;2022-08-21T12:59:27;44.90;24.00
64817;DHT22;53289;45.602;11.904;2022-08-21T13:01:54;44.90;23.50
64817;DHT22;53289;45.602;11.904;2022-08-21T13:04:42;44.80;23.10
64817;DHT22;53289;45.602;11.904;2022-08-21T13:07:11;44.20;22.40
64817;DHT22;53289;45.602;11.904;2022-08-21T13:09:48;43.90;23.40
64817;DHT22;53289;45.602;11.904;2022-08-21T13:12:16;43.50;24.30
64817;DHT22;53289;45.602;11.904;2022-08-21T13:14:44;43.60;24.80
64817;DHT22;53289;45.602;11.904;2022-08-21T13:17:18;43.60;24.70
64817;DHT22;53289;45.602;11.904;2022-08-21T13:19:59;43.70;24.60
64817;DHT22;53289;45.602;11.904;2022-08-21T13:22:27;43.70;24.80
64817;DHT22;53289;45.602;11.904;2022-08-21T13:24:53;43.90;23.40
64817;DHT22;53289;45.602;11.904;2022-08-21T13:30:05;43.60;24.20
64817;DHT22;53289;45.602;11.904;2022-08-21T13:32:34;43.40;24.30
64817;DHT22;53289;45.602;11.904;2022-08-21T13:36:04;43.40;24.80
64817;DHT22;53289;45.602;11.904;2022-08-21T13:38:05;43.50;23.80
64817;DHT22;53289;45.602;11.904;2022-08-21T13:40:39;43.50;24.00
64817;DHT22;53289;45.602;11.904;2022-08-21T13:43:16;43.20;24.60
64817;DHT22;53289;45.602;11.904;2022-08-21T13:45:47;43.00;24.70
64817;DHT22;53289;45.602;11.904;2022-08-21T13:48:13;43.00;24.80
64817;DHT22;53289;45.602;11.904;2022-08-21T13:50:41;42.90;24.70
64817;DHT22;53289;45.602;11.904;2022-08-21T13:53:43;42.40;25.10
64817;DHT22;53289;45.602;11.904;2022-08-21T13:56:26;42.10;24.90
64817;DHT22;53289;45.602;11.904;2022-08-21T13:58:54;41.60;25.70
64817;DHT22;53289;45.602;11.904;2022-08-21T14:04:36;41.30;26.60
64817;DHT22;53289;45.602;11.904;2022-08-21T14:07:15;41.50;25.20
64817;DHT22;53289;45.602;11.904;2022-08-21T14:09:43;41.20;25.70
64817;DHT22;53289;45.602;11.904;2022-08-21T14:12:27;41.00;26.20
64817;DHT22;53289;45.602;11.904;2022-08-21T14:14:55;41.10;25.90
64817;DHT22;53289;45.602;11.904;2022-08-21T14:17:34;40.80;26.40
64817;DHT22;53289;45.602;11.904;2022-08-21T14:20:02;41.00;25.70
64817;DHT22;53289;45.602;11.904;2022-08-21T14:22:42;41.20;25.60
64817;DHT22;53289;45.602;11.904;2022-08-21T14:27:59;41.20;25.30
64817;DHT22;53289;45.602;11.904;2022-08-21T14:30:39;41.10;25.40
64817;DHT22;53289;45.602;11.904;2022-08-21T14:33:16;41.00;25.50
64817;DHT22;53289;45.602;11.904;2022-08-21T14:35:44;40.90;25.40
64817;DHT22;53289;45.602;11.904;2022-08-21T14:38:19;40.90;25.50
64817;DHT22;53289;45.602;11.904;2022-08-21T14:40:51;40.90;25.80
64817;DHT22;53289;45.602;11.904;2022-08-21T14:43:19;40.90;25.50
64817;DHT22;53289;45.602;11.904;2022-08-21T14:45:46;40.90;26.20
64817;DHT22;53289;45.602;11.904;2022-08-21T14:48:12;40.80;26.50
64817;DHT22;53289;45.602;11.904;2022-08-21T14:50:38;40.80;26.50
64817;DHT22;53289;45.602;11.904;2022-08-21T14:53:04;40.60;27.20
64817;DHT22;53289;45.602;11.904;2022-08-21T14:55:31;40.40;27.30
64817;DHT22;53289;45.602;11.904;2022-08-21T14:58:18;40.20;27.40
64817;DHT22;53289;45.602;11.904;2022-08-21T15:00:44;39.90;27.80
64817;DHT22;53289;45.602;11.904;2022-08-21T15:03:10;39.90;27.80
64817;DHT22;53289;45.602;11.904;2022-08-21T15:05:36;39.70;27.80
64817;DHT22;53289;45.602;11.904;2022-08-21T15:08:02;39.50;28.10
64817;DHT22;53289;45.602;11.904;2022-08-21T15:10:31;39.40;28.60
64817;DHT22;53289;45.602;11.904;2022-08-21T15:12:58;39.30;28.90
64817;DHT22;53289;45.602;11.904;2022-08-21T15:15:28;39.40;28.50
64817;DHT22;53289;45.602;11.904;2022-08-21T15:17:54;39.50;28.00
64817;DHT22;53289;45.602;11.904;2022-08-21T15:20:20;39.30;28.00
64817;DHT22;53289;45.602;11.904;2022-08-21T15:22:46;39.10;28.20
64817;DHT22;53289;45.602;11.904;2022-08-21T15:25:12;39.00;28.40
64817;DHT22;53289;45.602;11.904;2022-08-21T15:27:37;39.10;30.10
64817;DHT22;53289;45.602;11.904;2022-08-21T15:30:04;39.00;30.80
64817;DHT22;53289;45.602;11.904;2022-08-21T15:32:30;39.00;30.80
64817;DHT22;53289;45.602;11.904;2022-08-21T15:34:58;38.80;31.20
64817;DHT22;53289;45.602;11.904;2022-08-21T15:37:25;38.60;31.20
64817;DHT22;53289;45.602;11.904;2022-08-21T15:39:52;38.40;31.40
64817;DHT22;53289;45.602;11.904;2022-08-21T15:42:19;38.30;31.50
64817;DHT22;53289;45.602;11.904;2022-08-21T15:44:47;38.20;31.70
64817;DHT22;53289;45.602;11.904;2022-08-21T15:47:19;38.30;32.00
64817;DHT22;53289;45.602;11.904;2022-08-21T15:49:46;38.30;32.00
64817;DHT22;53289;45.602;11.904;2022-08-21T15:52:17;38.20;31.80
64817;DHT22;53289;45.602;11.904;2022-08-21T15:54:44;38.20;31.20
64817;DHT22;53289;45.602;11.904;2022-08-21T15:57:13;38.00;31.60
64817;DHT22;53289;45.602;11.904;2022-08-21T15:59:45;38.00;31.60
64817;DHT22;53289;45.602;11.904;2022-08-21T16:02:18;38.00;31.70
64817;DHT22;53289;45.602;11.904;2022-08-21T16:04:45;37.80;31.70
64817;DHT22;53289;45.602;11.904;2022-08-21T16:07:11;37.40;32.20
64817;DHT22;53289;45.602;11.904;2022-08-21T16:09:37;37.10;32.60
64817;DHT22;53289;45.602;11.904;2022-08-21T16:12:04;36.70;33.00
64817;DHT22;53289;45.602;11.904;2022-08-21T16:14:32;36.50;33.20
64817;DHT22;53289;45.602;11.904;2022-08-21T16:16:59;36.10;33.80
64817;DHT22;53289;45.602;11.904;2022-08-21T16:19:28;35.80;34.70
64817;DHT22;53289;45.602;11.904;2022-08-21T16:21:54;35.70;34.50
64817;DHT22;53289;45.602;11.904;2022-08-21T16:24:20;35.40;34.80
64817;DHT22;53289;45.602;11.904;2022-08-21T16:26:48;35.00;35.10
64817;DHT22;53289;45.602;11.904;2022-08-21T16:29:15;34.70;35.50
64817;DHT22;53289;45.602;11.904;2022-08-21T16:31:41;34.50;35.30
64817;DHT22;53289;45.602;11.904;2022-08-21T16:34:13;34.40;35.30
64817;DHT22;53289;45.602;11.904;2022-08-21T16:36:40;34.50;35.20
64817;DHT22;53289;45.602;11.904;2022-08-21T16:39:06;34.70;35.20
64817;DHT22;53289;45.602;11.904;2022-08-21T16:41:33;35.10;35.00
64817;DHT22;53289;45.602;11.904;2022-08-21T16:44:01;35.60;34.20
64817;DHT22;53289;45.602;11.904;2022-08-21T16:46:35;35.90;34.00
64817;DHT22;53289;45.602;11.904;2022-08-21T16:49:03;36.40;33.50
64817;DHT22;53289;45.602;11.904;2022-08-21T16:51:29;36.60;32.80
64817;DHT22;53289;45.602;11.904;2022-08-21T16:54:00;37.00;32.60
64817;DHT22;53289;45.602;11.904;2022-08-21T16:56:26;37.30;31.50
64817;DHT22;53289;45.602;11.904;2022-08-21T16:58:53;37.60;31.40
64817;DHT22;53289;45.602;11.904;2022-08-21T17:01:24;37.90;31.50
64817;DHT22;53289;45.602;11.904;2022-08-21T17:03:51;38.10;31.00
64817;DHT22;53289;45.602;11.904;2022-08-21T17:06:18;38.40;31.10